Terminal Aerodrome Forecast
Issued by NWS

Home | Current Version | Previous Version | Text Only | Print | Product List | Glossary On
Versions: 1 2 3 4 5 6 7 8 9 10 11 12 13 14 15 16 17
396
FTUS45 KGGW 240532
TAFSDY
TAF
KSDY 240532Z 2406/2506 VRB04KT P6SM OVC025
     FM241200 32006KT P6SM BKN007
     FM242000 31010KT P6SM BKN015
     FM250300 31007KT 2SM BR OVC009=

USA.gov is the U.S. government's official web portal to all federal, state and local government web resources and services.